Date,TemperatureHighF,TemperatureAvgF,TemperatureLowF,DewpointHighF,DewpointAvgF,DewpointLowF,HumidityHigh,HumidityAvg,HumidityLow,PressureMaxIn,PressureMinIn,WindSpeedMaxMPH,WindSpeedAvgMPH,GustSpeedMaxMPH,PrecipitationSumIn
2013-1-1,55,53,49,50,47,41,89,82,72,30.14,29.92,4,2,4,0.00
2013-1-2,53,49,43,49,46,39,91,88,80,30.16,29.88,10,2,10,0.00
2013-1-3,44,41,33,38,36,28,89,83,74,30.26,30.12,3,1,3,0.00
2013-1-4,52,36,27,33,28,24,89,75,45,30.32,30.21,4,1,4,0.00
2013-1-5,52,38,26,32,27,21,85,66,41,30.39,30.27,10,0,10,0.00
2013-1-6,47,46,43,44,42,37,89,86,79,30.22,30.06,2,0,2,0.00
2013-1-7,54,43,33,42,34,28,91,74,50,30.41,30.16,8,1,8,0.00
2013-1-8,45,42,40,40,37,34,84,81,76,30.42,30.37,2,1,2,0.00
2013-1-9,71,53,40,56,47,36,89,80,59,30.41,30.34,2,0,2,0.00
2013-1-10,71,61,49,54,50,42,90,68,55,30.49,30.40,5,2,5,0.00
2013-1-11,70,55,49,62,48,40,89,78,62,30.40,30.15,4,1,4,0.00
2013-1-12,76,59,54,65,55,51,91,87,69,30.16,30.11,5,1,5,0.00
2013-1-13,77,70,58,64,60,55,91,73,58,30.14,30.06,5,2,5,0.00
2013-1-14,78,66,54,64,59,50,91,79,60,30.17,30.08,7,2,7,0.00
2013-1-15,60,56,52,56,52,50,90,89,86,30.16,30.08,5,2,5,0.00
2013-1-16,76,60,53,64,56,50,92,87,65,30.03,29.94,8,1,8,0.00
2013-1-17,57,53,41,55,50,38,91,90,87,30.03,29.75,15,4,15,0.00
2013-1-18,50,40,31,36,30,25,89,70,40,30.51,30.10,8,2,8,0.00
2013-1-19,59,42,27,41,33,23,86,70,45,30.48,30.16,4,1,4,0.00
2013-1-20,64,48,37,43,37,34,89,69,38,30.16,30.00,6,1,6,0.00
2013-1-21,64,44,32,39,33,27,84,68,39,30.06,29.89,4,1,4,0.00
2013-1-22,46,39,28,28,16,13,56,40,27,30.24,29.97,5,1,5,0.00
2013-1-23,44,34,21,20,15,10,65,47,30,30.38,30.11,3,0,3,0.00
2013-1-24,44,37,25,36,19,7,77,50,28,30.50,30.01,17,1,17,0.00
2013-1-25,32,28,19,24,17,9,80,63,46,30.50,30.12,0,0,0,0.00
2013-1-26,45,32,28,35,26,22,84,79,60,30.36,30.10,8,0,8,0.00
2013-1-27,44,37,30,31,27,23,87,69,55,30.57,30.50,6,1,6,0.00
2013-1-28,58,50,35,47,41,30,84,73,62,30.47,30.27,2,0,2,0.00
2013-1-29,75,61,43,60,53,39,89,76,56,30.24,30.10,8,2,8,0.00
2013-1-30,74,66,60,64,61,56,91,83,73,30.09,29.51,13,3,13,0.00
2013-1-31,62,50,38,57,34,25,87,57,34,30.06,29.56,17,5,17,0.00
2013-2-1,49,44,41,30,23,8,58,47,21,30.22,29.97,9,5,9,0.00
2013-2-2,51,43,34,35,23,14,75,48,29,30.39,30.05,4,1,4,0.00
2013-2-3,54,48,40,36,30,25,67,50,41,29.99,29.86,6,2,6,0.00
2013-2-4,52,39,26,30,26,20,79,60,40,30.14,30.00,1,0,1,0.00
2013-2-5,65,56,44,39,37,36,74,52,37,30.01,29.88,10,2,10,0.00
2013-2-6,67,50,36,47,36,31,87,64,34,30.21,29.97,4,1,4,0.00
2013-2-7,56,49,39,47,44,34,90,84,70,30.25,29.88,10,5,10,0.00
2013-2-8,60,51,46,48,44,32,90,80,55,30.04,29.70,10,4,10,0.00
2013-2-9,56,43,32,31,26,20,74,54,25,30.35,30.05,7,1,7,0.00
2013-2-10,60,52,37,44,36,27,76,57,34,30.46,30.25,5,1,5,0.00
2013-2-11,67,61,49,61,57,45,90,87,81,30.20,29.96,13,5,13,0.00
2013-2-12,62,56,54,55,46,38,89,70,42,30.09,29.94,4,1,4,0.00
2013-2-13,55,52,50,52,49,46,92,88,85,29.79,29.64,9,2,9,0.00
2013-2-14,54,46,37,39,36,33,86,69,53,30.07,29.96,5,0,5,0.00
2013-2-15,63,51,31,43,37,27,89,61,39,30.09,29.93,5,1,5,0.00
2013-2-16,48,39,34,38,34,31,89,82,65,29.93,29.82,7,2,7,0.00
2013-2-17,41,37,30,18,15,12,60,40,31,30.22,30.11,13,4,13,0.00
2013-2-18,54,43,20,25,22,15,83,47,27,30.42,30.29,4,1,4,0.00
2013-2-19,57,51,31,51,45,26,89,82,71,30.12,29.89,9,3,9,0.00
2013-2-20,55,46,31,33,26,20,87,50,25,30.10,30.01,6,2,6,0.00
2013-2-21,57,48,31,30,26,22,74,45,29,30.22,30.09,5,1,5,0.00
2013-2-22,44,41,39,36,32,27,90,70,53,30.28,30.08,5,2,5,0.00
2013-2-23,46,41,39,43,39,36,91,91,90,30.08,29.82,3,0,3,0.00
2013-2-24,66,50,42,48,43,36,92,80,45,29.98,29.79,5,1,5,0.00
2013-2-25,44,42,38,31,30,27,67,62,55,30.18,30.09,8,3,8,0.00
2013-2-26,69,56,40,64,53,36,92,88,83,29.92,29.53,5,2,5,0.00
2013-2-27,61,51,43,44,40,38,81,67,51,29.83,29.73,7,2,7,0.00
2013-2-28,53,48,36,40,34,28,87,59,45,29.85,29.73,8,2,8,0.00
2013-3-1,52,41,31,32,29,25,81,64,44,29.90,29.82,4,1,4,0.00
2013-3-2,48,42,37,34,30,27,77,63,50,29.89,29.82,5,1,5,0.00
2013-3-3,49,42,34,24,23,21,62,48,38,29.96,29.83,6,2,6,0.00
2013-3-4,54,42,28,21,19,16,63,42,24,30.12,30.01,4,2,4,0.00
2013-3-5,62,55,34,50,42,26,78,64,42,30.06,29.59,8,2,8,0.00
2013-3-6,58,48,41,51,32,25,81,55,38,30.01,29.54,16,6,16,0.00
2013-3-7,57,48,35,33,31,27,74,51,39,30.20,30.08,5,2,5,0.00
2013-3-8,58,45,31,28,26,22,72,49,30,30.28,30.12,8,2,8,0.00
2013-3-9,64,55,39,35,32,25,66,44,32,30.28,30.22,4,1,4,0.00
2013-3-10,70,61,43,39,29,23,80,33,18,30.31,30.19,2,1,2,0.00
2013-3-11,70,62,41,55,50,33,82,67,52,30.15,29.96,7,2,7,0.00
2013-3-12,75,67,60,63,58,40,90,74,48,29.89,29.75,9,3,9,0.00
2013-3-13,62,53,41,34,30,24,66,42,28,30.09,29.93,9,2,9,0.00
2013-3-14,55,45,32,25,22,18,59,41,28,30.25,30.11,7,2,7,0.00
2013-3-15,67,52,28,38,30,22,80,46,29,30.19,29.95,10,3,10,0.00
2013-3-16,82,75,67,48,44,41,41,34,29,29.85,29.72,17,6,17,0.00
2013-3-17,77,63,52,55,47,41,72,56,40,30.10,29.85,11,3,11,0.00
2013-3-18,60,50,44,50,43,39,85,76,69,30.13,29.90,7,2,7,0.00
2013-3-19,72,59,45,50,40,29,89,56,23,29.97,29.84,8,3,8,0.00
2013-3-20,59,48,36,26,21,15,61,37,23,30.11,29.80,4,1,4,0.00
2013-3-21,52,42,32,29,22,13,77,48,24,29.93,29.70,8,2,8,0.00
2013-3-22,56,43,26,24,19,14,61,40,25,30.10,29.98,4,1,4,0.00
2013-3-23,57,49,41,41,38,32,77,67,54,30.05,29.90,2,0,2,0.00
2013-3-24,47,43,40,44,39,35,90,86,78,29.93,29.49,9,2,9,0.00
2013-3-25,51,45,40,40,34,26,90,68,42,29.83,29.54,12,3,12,0.00
2013-3-26,50,45,37,31,29,26,65,53,46,30.10,29.90,6,2,6,0.00
2013-3-27,57,49,30,29,26,22,77,42,30,30.21,30.12,10,3,10,0.00
2013-3-28,60,48,29,28,26,22,75,44,28,30.27,30.15,7,2,7,0.00
2013-3-29,66,53,30,33,29,22,76,42,24,30.33,30.17,11,2,11,0.00
2013-3-30,70,58,49,51,46,43,83,66,46,30.24,30.10,8,1,8,0.00
2013-3-31,74,67,58,57,56,54,87,68,51,29.96,29.83,8,3,8,0.00
2013-4-1,76,64,55,58,53,43,89,72,33,29.91,29.82,5,1,5,0.00
2013-4-2,69,55,44,43,35,29,68,48,32,30.14,29.95,5,2,5,0.00
2013-4-3,62,52,47,37,31,28,66,46,30,30.26,30.16,9,2,9,0.00
2013-4-4,49,45,42,42,39,34,89,78,64,30.27,29.86,9,4,9,0.00
2013-4-5,66,53,42,49,44,39,89,73,49,30.01,29.88,6,2,6,0.00
2013-4-6,72,52,39,44,39,35,86,65,32,30.26,30.01,8,2,8,0.00
2013-4-7,77,66,45,49,46,40,83,51,32,30.27,30.12,5,2,5,0.00
2013-4-8,84,70,50,59,55,45,90,62,39,30.19,30.08,10,4,10,0.00
2013-4-9,89,68,54,63,56,49,90,69,40,30.21,30.10,8,2,8,0.00
2013-4-10,90,74,58,64,60,53,88,65,43,30.14,29.99,9,3,9,0.00
2013-4-11,86,70,57,67,61,53,90,76,46,30.02,29.84,10,2,10,0.00
2013-4-12,82,72,67,70,66,64,89,82,65,29.85,29.68,10,3,10,0.00
2013-4-13,82,72,59,52,46,43,69,40,28,30.01,29.90,5,2,5,0.00
2013-4-14,82,78,75,55,53,50,49,43,33,30.06,30.03,4,2,4,0.00
2013-4-15,76,70,60,61,59,54,80,68,60,30.18,30.00,3,1,3,0.00
2013-4-16,83,67,54,62,57,50,90,72,47,30.26,30.18,2,0,2,0.00
2013-4-17,82,71,54,65,61,50,88,71,52,30.24,30.16,4,1,4,0.00
2013-4-18,86,72,58,65,62,54,87,72,46,30.18,30.06,4,1,4,0.00
2013-4-19,84,76,68,71,68,65,89,77,64,29.97,29.80,10,4,10,0.00
2013-4-20,61,57,48,46,42,39,78,58,49,30.24,30.12,4,1,4,0.00
2013-4-21,71,66,54,48,45,41,60,47,43,30.41,30.34,14,3,14,0.00
2013-4-22,65,56,40,48,44,35,81,64,52,30.35,30.19,14,5,14,0.00
2013-4-23,75,60,49,54,50,45,87,70,47,30.22,30.11,7,2,7,0.00
2013-4-24,83,69,47,59,55,44,89,63,39,30.16,30.02,8,3,8,0.00
2013-4-25,76,66,58,56,54,52,82,66,46,30.26,30.11,4,1,4,0.00
2013-4-26,80,65,48,52,47,41,88,56,29,30.40,30.25,5,1,5,0.00
2013-4-27,78,71,60,55,50,45,74,49,34,30.36,30.26,2,0,2,0.00
2013-4-28,74,62,54,57,50,44,74,67,53,30.27,30.13,2,0,2,0.00
2013-4-29,76,69,63,65,62,59,90,79,63,30.04,29.96,2,1,2,0.00
2013-4-30,77,67,61,64,60,58,90,81,61,30.09,29.98,6,2,6,0.00
2013-5-1,69,64,57,60,58,53,90,82,72,30.24,30.12,8,3,8,0.00
2013-5-2,69,62,59,62,58,54,90,85,75,30.26,30.19,6,2,6,0.00
2013-5-3,60,58,55,45,45,44,66,62,58,30.15,30.14,2,1,2,0.00
2013-5-5,63,60,55,60,56,51,88,86,83,29.99,29.90,7,2,7,0.00
2013-5-6,81,68,58,64,59,50,90,73,46,29.88,29.80,7,1,7,0.00
2013-5-7,72,64,54,55,52,50,86,67,48,29.91,29.85,6,2,6,0.00
2013-5-8,80,69,52,58,56,49,89,66,47,29.99,29.93,6,2,6,0.00
2013-5-9,87,74,57,62,58,53,89,62,39,30.06,29.96,5,1,5,0.00
2013-5-10,89,74,59,66,61,55,87,66,41,30.06,29.97,5,2,5,0.00
2013-5-11,71,70,68,61,60,59,74,70,69,29.99,29.96,3,2,3,0.00
2013-5-12,77,71,65,51,49,48,53,47,41,29.98,29.90,4,1,4,0.00
2013-5-13,74,62,50,41,38,35,65,43,26,30.12,30.02,8,2,8,0.00
2013-5-14,49,48,46,40,38,37,73,69,67,30.17,30.13,0,0,0,0.00
2013-5-15,92,76,56,64,58,49,79,54,39,30.09,29.93,7,3,7,0.00
2013-5-16,88,79,63,64,62,58,83,57,42,30.00,29.93,2,1,2,0.00
2013-5-17,93,84,64,64,62,58,83,51,36,30.06,30.02,3,1,3,0.00
2013-5-18,88,77,64,68,63,58,82,65,47,30.12,30.07,3,2,3,0.00
2013-5-19,78,72,69,70,66,64,84,82,77,30.15,30.08,4,0,4,0.00
2013-5-20,78,75,71,70,68,67,89,81,75,30.12,30.05,5,1,5,0.00
2013-5-21,80,75,70,71,69,67,90,80,73,30.06,29.98,4,1,4,0.00
2013-5-22,85,77,68,75,68,65,90,75,61,30.04,29.93,3,0,3,0.00
2013-5-23,72,70,69,68,66,65,89,87,81,29.97,29.85,1,0,1,0.00
2013-5-24,77,67,57,63,58,44,90,76,37,30.16,29.84,2,1,2,0.00
2013-5-26,86,73,67,54,50,48,52,45,34,30.21,30.17,0,0,0,0.00
2013-5-27,91,65,50,59,52,45,84,68,33,30.27,30.17,2,0,2,0.00
2013-5-28,74,65,60,66,58,54,86,78,67,30.24,30.19,4,1,4,0.00
2013-5-29,93,81,62,69,65,58,87,61,42,30.25,30.19,5,1,5,0.00
2013-5-30,89,78,61,69,65,57,86,65,51,30.26,30.17,2,0,2,0.00
2013-5-31,94,80,64,70,67,60,87,68,46,30.23,30.11,3,1,3,0.00
2013-6-1,90,83,76,71,68,65,68,61,48,30.13,30.06,4,2,4,0.00
2013-6-2,90,77,66,72,67,62,88,74,50,30.08,29.93,10,2,10,0.00
2013-6-3,76,74,70,72,70,67,89,88,85,29.94,29.87,3,1,3,0.00
2013-6-4,87,77,67,72,69,64,91,78,63,30.08,29.96,5,1,5,0.00
2013-6-5,88,80,69,69,67,64,85,65,53,30.09,30.00,1,0,1,0.00
2013-6-6,76,74,72,71,69,66,88,86,80,30.02,29.86,1,0,1,0.00
2013-6-7,78,76,72,73,72,70,91,87,84,29.63,29.53,1,0,1,0.00
2013-6-8,87,86,86,74,73,72,65,64,63,29.98,29.98,6,4,6,0.00
2013-6-9,89,83,76,76,74,73,89,75,63,30.15,30.07,1,1,1,0.00
2013-6-10,79,74,72,74,70,68,90,88,84,30.08,29.97,4,1,4,0.00
2013-6-11,75,73,72,71,69,65,90,87,79,29.98,29.95,6,2,6,0.00
2013-6-12,99,82,66,75,69,63,88,68,44,29.98,29.89,6,1,6,0.00
2013-6-13,100,83,75,77,70,62,88,68,42,29.88,29.66,6,2,6,0.00
2013-6-14,81,71,67,67,61,58,85,70,51,30.00,29.73,5,1,5,0.00
2013-6-15,92,82,68,64,62,57,83,51,40,30.13,30.05,6,2,6,0.00
2013-6-16,93,80,67,68,65,58,84,61,45,30.16,30.04,6,3,6,0.00
2013-6-17,90,80,70,73,70,65,88,72,56,30.06,29.96,8,2,8,0.00
2013-6-18,90,78,70,75,71,66,89,80,61,29.99,29.79,6,2,6,0.00
2013-6-19,86,77,69,73,68,66,89,77,61,30.05,29.93,3,1,3,0.00
2013-6-20,94,84,64,69,66,61,89,58,45,30.19,30.14,1,0,1,0.00
2013-6-21,90,80,60,69,65,56,88,61,51,30.21,30.15,6,3,6,0.00
2013-6-22,86,80,76,77,73,72,87,78,74,30.15,30.10,4,1,4,0.00
2013-6-23,92,85,76,76,73,71,89,69,54,30.20,30.12,6,1,6,0.00
2013-6-24,86,79,74,75,73,71,89,81,68,30.21,30.19,0,0,0,0.00
2013-6-25,88,78,72,76,71,68,89,81,66,30.14,30.03,0,0,0,0.00
2013-6-26,89,80,70,76,72,66,89,78,66,30.04,29.93,0,0,0,0.00
2013-6-27,93,81,73,77,73,70,89,79,58,29.90,29.77,0,0,0,0.00
2013-6-28,95,82,75,78,75,72,89,78,53,29.73,29.62,0,0,0,0.00
2013-6-29,86,80,76,74,72,71,83,77,68,29.76,29.67,0,0,0,0.00
2013-6-30,86,80,76,76,74,71,87,82,72,29.80,29.76,0,0,0,0.00
2013-7-1,82,76,73,75,72,70,90,87,78,30.01,29.88,0,0,0,0.00
2013-7-2,79,77,74,75,73,71,90,88,85,30.18,30.06,0,0,0,0.00
2013-7-3,86,76,74,77,72,71,90,88,76,30.24,30.16,0,0,0,0.00
2013-7-4,92,80,75,76,74,72,90,83,59,30.26,30.20,0,0,0,0.00
2013-7-5,77,74,72,74,70,68,89,88,88,30.25,30.24,0,0,0,0.00
2013-7-6,94,86,76,76,73,68,78,65,51,30.24,30.13,0,0,0,0.00
2013-7-7,89,81,76,74,73,71,88,76,60,30.20,30.09,0,0,0,0.00
2013-7-8,92,82,73,76,74,69,88,75,60,30.18,30.11,0,0,0,0.00
2013-7-9,84,80,75,76,74,72,89,83,76,30.16,30.10,0,0,0,0.00
2013-7-10,95,88,74,74,72,71,89,61,51,30.09,29.97,0,0,0,0.00
2013-7-11,91,83,75,76,73,70,87,72,57,29.98,29.88,0,0,0,0.00
2013-7-12,80,77,73,74,72,69,88,85,79,29.98,29.93,0,0,0,0.00
2013-7-13,79,76,74,74,72,71,89,88,86,30.14,30.05,0,0,0,0.00
2013-7-14,93,86,74,77,75,70,89,69,56,30.26,30.21,0,0,0,0.00
2013-7-15,95,80,72,77,71,68,87,76,57,30.28,30.23,0,0,0,0.00
2013-7-16,103,86,71,78,74,67,86,70,42,30.28,30.17,0,0,0,0.00
2013-7-17,98,82,76,78,74,71,87,78,50,30.21,30.10,0,0,0,0.00
2013-7-18,91,83,75,75,73,70,86,73,56,30.14,30.06,0,0,0,0.00
2013-7-19,93,81,74,75,72,70,87,76,55,30.13,30.01,0,0,0,0.00
2013-7-20,89,81,75,74,73,71,86,76,60,30.06,29.97,0,0,0,0.00
2013-7-21,89,79,74,76,73,70,87,82,66,30.02,29.93,0,0,0,0.00
2013-7-22,93,82,74,78,74,70,88,76,58,29.96,29.87,0,0,0,0.00
2013-7-23,97,86,76,75,74,71,86,67,49,29.86,29.74,0,0,0,0.00
2013-7-24,91,82,72,76,73,67,86,74,61,29.80,29.75,0,0,0,0.00
2013-7-25,88,78,71,73,70,67,87,75,61,29.99,29.84,0,0,0,0.00
2013-7-26,90,76,67,69,66,63,88,75,49,30.07,30.04,0,0,0,0.00
2013-7-27,88,79,74,74,71,69,86,77,60,30.03,29.95,0,0,0,0.00
2013-7-28,83,81,77,73,72,70,80,75,71,30.00,29.97,0,0,0,0.00
2013-7-29,93,80,72,75,73,68,87,78,54,30.13,30.04,0,0,0,0.00
2013-7-30,93,78,68,75,70,64,88,76,49,30.19,30.11,0,0,0,0.00
2013-7-31,87,81,74,76,73,70,87,77,66,30.14,30.02,0,0,0,0.00
2013-8-1,89,80,73,76,72,69,88,78,66,29.96,29.89,0,0,0,0.00
2013-8-2,89,80,73,76,73,70,88,80,66,30.03,29.95,0,0,0,0.00
2013-8-3,92,87,80,78,76,74,85,71,60,30.04,29.91,0,0,0,0.00
2013-8-4,84,79,72,73,69,65,85,73,58,30.02,29.92,0,0,0,0.00
2013-8-5,92,81,70,68,66,63,80,60,45,30.08,30.00,0,0,0,0.00
2013-8-6,85,77,68,71,67,62,82,72,60,30.07,30.02,0,0,0,0.00
2013-8-7,91,78,68,72,68,63,86,73,53,30.09,30.03,0,0,0,0.00
2013-8-8,96,84,70,76,71,65,87,68,52,30.04,30.00,0,0,0,0.00
2013-8-9,94,83,77,76,74,72,87,77,52,30.09,30.03,0,0,0,0.00
2013-8-10,90,82,78,75,73,71,80,74,62,30.10,30.07,0,0,0,0.00
2013-8-11,88,82,76,79,75,72,87,80,72,30.11,30.01,0,0,0,0.00
2013-8-12,101,91,81,77,75,72,73,60,44,30.03,29.93,0,0,0,0.00
2013-8-13,92,82,76,79,74,70,87,77,62,29.92,29.80,0,0,0,0.00
2013-8-14,77,73,69,70,67,64,87,81,75,30.05,29.90,0,0,0,0.00
2013-8-15,77,68,63,65,62,58,87,80,67,30.14,30.05,0,0,0,0.00
2013-8-16,73,68,67,65,64,63,88,85,76,30.14,30.09,0,0,0,0.00
2013-8-17,80,72,67,74,68,64,89,87,81,30.12,30.07,0,0,0,0.00
2013-8-18,95,83,71,76,72,68,89,71,51,30.18,30.11,0,0,0,0.00
2013-8-19,74,72,71,70,69,68,88,88,87,30.16,30.08,0,0,0,0.00
2013-8-20,81,76,72,74,71,68,88,86,80,30.17,30.11,0,0,0,0.00
2013-8-21,94,80,71,78,72,67,89,77,57,30.22,30.10,0,0,0,0.00
2013-8-22,90,76,71,76,70,67,88,82,62,30.12,30.00,0,0,0,0.00
2013-8-23,76,73,70,70,68,66,88,84,78,30.00,29.99,0,0,0,0.00
2013-8-24,72,70,69,64,64,63,82,79,76,30.25,30.14,0,0,0,0.00
2013-8-25,84,74,65,64,62,60,87,68,48,30.35,30.27,0,0,0,0.00
2013-8-26,84,73,60,63,61,56,86,68,49,30.25,30.12,0,0,0,0.00
2013-8-27,88,77,61,72,66,57,86,69,54,30.08,29.97,0,0,0,0.00
2013-8-28,89,78,68,76,71,63,87,79,64,29.99,29.91,0,0,0,0.00
2013-8-29,88,80,75,76,72,70,83,76,67,29.96,29.88,0,0,0,0.00
2013-8-30,88,81,68,71,69,64,88,69,56,30.02,29.96,0,0,0,0.00
2013-8-31,90,82,73,73,71,69,87,70,50,29.98,29.90,0,0,0,0.00
2013-9-1,90,83,76,78,75,72,87,78,66,29.93,29.85,0,0,0,0.00
2013-9-2,85,81,77,77,74,72,87,80,73,29.90,29.81,0,0,0,0.00
2013-9-3,91,79,72,77,71,66,87,77,60,29.92,29.80,0,0,0,0.00
2013-9-4,95,84,67,75,72,63,88,69,51,30.04,29.98,0,0,0,0.00
2013-9-5,96,82,74,75,69,62,88,67,35,30.09,30.01,0,0,0,0.00
2013-9-6,86,72,66,67,63,61,85,76,53,30.12,30.09,0,0,0,0.00
2013-9-7,89,77,66,64,62,60,83,61,42,30.11,29.98,0,0,0,0.00
2013-9-8,96,79,66,70,66,60,85,67,43,29.99,29.89,0,0,0,0.00
2013-9-9,94,79,65,72,67,61,86,70,48,30.10,30.02,0,0,0,0.00
2013-9-10,90,77,67,73,68,63,87,74,54,30.22,30.15,0,0,0,0.00
2013-9-11,91,83,66,73,69,62,87,64,51,30.20,30.08,0,0,0,0.00
2013-9-12,79,74,69,70,68,64,87,81,72,30.03,29.85,0,0,0,0.00
2013-9-13,92,78,71,68,65,61,85,65,40,29.84,29.75,0,0,0,0.00
2013-9-14,70,67,66,58,56,53,74,67,61,30.00,29.85,0,0,0,0.00
2013-9-16,88,80,65,73,67,61,86,65,52,30.14,30.03,0,0,0,0.00
2013-9-17,80,68,62,59,56,53,79,66,45,30.27,30.20,0,0,0,0.00
2013-9-18,76,62,52,57,53,47,84,71,52,30.26,30.16,0,0,0,0.00
2013-9-19,81,64,53,58,56,49,86,74,45,30.17,30.09,0,0,0,0.00
2013-9-20,70,67,65,64,62,60,87,85,82,30.10,30.05,0,0,0,0.00
2013-9-21,80,73,67,70,68,64,88,83,72,29.90,29.73,0,0,0,0.00
2013-9-22,74,69,66,67,63,61,88,81,73,29.83,29.66,0,0,0,0.00
2013-9-23,75,64,57,59,56,53,87,76,55,30.03,29.90,0,0,0,0.00
2013-9-24,76,62,52,59,54,48,88,76,54,30.08,29.95,0,0,0,0.00
2013-9-25,60,56,53,56,52,48,87,87,86,29.91,29.90,0,0,0,0.00
2013-9-26,63,62,62,60,59,58,90,88,87,29.88,29.87,0,0,0,0.00
2013-9-27,64,59,56,59,55,52,87,86,84,30.08,30.03,0,0,0,0.00
2013-9-28,75,68,57,59,57,53,86,69,56,30.19,30.13,0,0,0,0.00
2013-9-29,74,66,57,57,55,54,88,70,50,30.12,30.01,0,0,0,0.00
2013-9-30,56,56,55,53,52,52,90,88,86,30.06,30.02,0,0,0,0.00
2013-10-1,52,51,51,48,48,48,89,88,88,30.09,30.08,0,0,0,0.00
2013-10-2,85,76,57,65,62,54,91,64,48,30.11,30.04,0,0,0,0.00
2013-10-3,87,75,59,67,62,57,99,67,40,30.12,30.06,0,0,0,0.00
2013-10-4,86,76,64,70,67,64,99,75,49,30.13,30.11,0,0,0,0.00
2013-10-5,92,86,76,80,65,50,94,56,24,30.12,30.03,0,0,0,0.00
2013-10-6,105,102,98,91,85,75,73,60,47,30.01,29.95,0,0,0,0.00
2013-10-10,20,5,-39,19,3,-46,99,90,65,29.96,29.93,0,0,0,0.00
2013-10-11,-39,-39,-39,-45,-45,-45,70,70,70,29.92,29.92,0,0,0,0.00
2013-10-13,54,20,-14,54,19,-16,99,94,90,30.12,30.12,0,0,0,0.00
2013-10-15,72,5,-39,72,2,-45,99,83,72,30.11,30.03,0,0,0,0.00
2013-10-16,7,-24,-39,5,-29,-45,91,76,69,30.01,29.97,0,0,0,0.00
2013-10-17,6,-15,-36,6,-16,-38,99,94,88,29.94,29.93,0,0,0,0.00